Tiempo atmosférico en la estación meteorológica de Xàtiva, València/Valencia (88 m.)



Fecha
DESCASC
Temp. máxima en grados centígrados (hora)
DESCASC
Temp. mínima en grados centígrados (hora)
DESCASC
Temp. media en grados centígrados
DESCASC
Racha de viento máxima en m/sg (hora)
DESCASC
Velocidad máxima media en intervalos de 10 minutos(hora)
DESCASC
Precipitaciones diarias en mm
DESCASC
Precipitaciones de 00:00 a 06:00 en mm
DESCASC
Precipitaciones de 06:00 a 12:00 en mm
DESCASC
Precipitaciones de 12:00 a 18:00 en mm
DESCASC
Precipitaciones de 18:00 a 24:00 en mm
DESCASC
22-10-2019 16.1 (16:40) 12.8 (04:50) 14.5 7.5 (04:50) 5.28 (04:50) 44.8 28.6 12.6 3.6 0
13-11-2019 21 (12:20) 11.6 (00:00) 16.3 16.67 (12:40) 8.06 (12:30) 1.4 0.6 0 0.8 0
02-11-2019 27.2 (15:00) 20.2 (00:00) 23.7 12.78 (13:10) 6.11 (16:00) 0 0 0 0 0
16-11-2019 16.7 (15:30) 3.5 (00:00) 10.1 9.17 (14:30) 4.72 (21:10) 0 0 0 0 0
15-11-2019 16.1 (15:00) 8.2 (00:00) 12.2 14.72 (02:20) 7.22 (02:20) 0 0 0 0 0
14-11-2019 17.7 (13:10) 10.1 (00:00) 13.9 18.61 (13:10) 9.44 (13:20) 0 0 0 0 0
12-11-2019 20.4 (15:30) 8.6 (00:00) 14.5 10.83 (19:20) 5 (23:20) 0 0 0 0 0
11-11-2019 17.2 (14:00) 7.6 (06:00) 12.4 11.67 (13:20) 6.94 (13:30) 0 0 0 0 0
10-11-2019 16.9 (14:50) 9.6 (00:00) 13.3 13.61 (15:20) 6.67 (15:20) 0 0 0 0 0
09-11-2019 19.1 (14:20) 10.1 (00:00) 14.6 16.11 (13:50) 8.06 (14:00) 1 0 0 0 1
08-11-2019 16.9 (15:30) 9.6 (05:30) 13.3 16.11 (14:50) 9.17 (14:50) 0 0 0 0 0
07-11-2019 22.1 (15:50) 11.4 (00:00) 16.8 11.67 (12:40) 6.11 (12:40) 0 0 0 0 0
06-11-2019 22 (15:10) 11.8 (00:00) 16.9 11.11 (16:40) 6.39 (16:40) 0 0 0 0 0
05-11-2019 20.1 (15:10) 14.1 (00:00) 17.1 16.39 (12:40) 8.89 (12:40) 0 0 0 0 0
04-11-2019 24.9 (15:40) 16.6 (00:00) 20.8 18.61 (12:30) 8.61 (12:00) 0 0 0 0 0
03-11-2019 23.6 (13:10) 17.1 (00:00) 20.4 18.89 (14:00) 10.28 (14:20) 0 0 0 0 0
18-10-2019 29.9 (16:30) 15 (00:00) 22.4 7.78 (03:20) 4.72 (03:20) 0 0 0 0 0
01-11-2019 27.9 (15:40) 16.5 (00:00) 22.2 12.22 (16:00) 6.67 (16:40) 0 0 0 0 0
31-10-2019 27.8 (15:50) 17.1 (07:40) 22.4 11.67 (11:10) 5.83 (13:10) 0 0 0 0 0
30-10-2019 27.2 (14:40) 12 (00:00) 19.6 5.56 (20:40) 2.78 (18:40) 0 0 0 0 0
29-10-2019 28 (15:50) 12.6 (00:00) 20.3 5.28 (17:30) 3.33 (17:30) 0 0 0 0 0
28-10-2019 22.4 (16:00) 12.6 (00:00) 17.5 4.72 (10:30) 2.5 (05:30) 0 0 0 0 0
27-10-2019 24.4 (16:00) 13 (00:00) 18.7 4.44 (16:50) 3.06 (16:50) 0 0 0 0 0
26-10-2019 24 (16:20) 11 (00:00) 17.5 6.11 (16:10) 3.06 (17:10) 0 0 0 0 0
25-10-2019 25.6 (15:50) 9.5 (00:00) 17.6 4.72 (01:00) 2.78 (07:40) 0 0 0 0 0
24-10-2019 22.1 (16:40) 9.4 (00:00) 15.8 10.83 (11:40) 5.83 (11:30) 0 0 0 0 0
23-10-2019 20.1 (15:30) 11.5 (00:00) 15.8 12.5 (16:10) 5.56 (12:10) 0 0 0 0 0
21-10-2019 20.4 (15:40) 8.9 (00:00) 14.6 5.83 (14:20) 3.61 (16:20) 0 0 0 0 0
20-10-2019 21.3 (17:20) 12.6 (00:00) 16.9 9.17 (07:40) 5 (07:50) 0.8 0 0.6 0.2 0
19-10-2019 30.1 (16:40) 15.2 (00:00) 22.7 9.17 (14:40) 5 (15:40) 0 0 0 0 0

Gráficas

Temp. máximas Temp. mínimas Temp. medias Precipitaciones Rachas de viento máximas Velocidades máximas media en intervalos de 10 minutos

Datos horarios

Fecha y hora oficial Temperatura (ºC) Velocidad del viento (km/h) Dirección del viento Racha (km/h) Dirección de racha Precipitación (mm) Presión (hPa) Tendencia (hPa) Humedad (%)
2019-11-16 23:00:00 8.8 6 Sudoeste 18 Noroeste 0 1004.8 1.2 50
2019-11-16 22:00:00 9.6 10 Oeste 24 Sudoeste 0 1004.5 1.5 46
2019-11-16 21:00:00 10.7 13 Oeste 27 Oeste 0 1004.2 2 42
2019-11-16 20:00:00 10.8 13 Oeste 23 Oeste 0 1003.6 2.3 44
2019-11-16 19:00:00 11.3 9 Oeste 21 Oeste 0 1003 1.9 42
2019-11-16 18:00:00 12.3 8 Oeste 23 Oeste 0 1002.2 1.3 38
2019-11-16 17:00:00 15 11 Oeste 26 Oeste 0 1001.3 0.4 29
2019-11-16 16:00:00 16.3 17 Oeste 30 Oeste 0 1001.1 -0.1 27
2019-11-16 15:00:00 16.1 10 Oeste 33 Oeste 0 1000.9 -1.1 29
2019-11-16 14:00:00 15.3 14 Noroeste 28 Oeste 0 1000.9 -1.3 32
2019-11-16 13:00:00 14.7 5 Oeste 17 Noroeste 0 1001.2 -0.4 35
2019-11-16 12:00:00 13.8 8 Oeste 18 Oeste 0 1002 0.9 39
2019-11-16 11:00:00 11.8 4 Sur 15 Oeste 0 1002.2 1.9 45
2019-11-16 10:00:00 8.4 8 Sudoeste 18 Sudoeste 0 1001.6 2.2 58
2019-11-16 09:00:00 3.6 2 Sudoeste 5 Oeste 0 1001.1 2.5 79
2019-11-16 08:00:00 5.2 6 Sudoeste 17 Sudoeste 0 1000.3 2.2 69
2019-11-16 07:00:00 4.4 7 Oeste 16 Sudoeste 0 999.4 2.1 74
2019-11-16 06:00:00 4.4 6 Sudoeste 13 Oeste 0 998.6 1.4 74
2019-11-16 05:00:00 6 6 Norte 16 Sudoeste 0 998.1 1 67
2019-11-16 04:00:00 7.1 10 Sudoeste 19 Sudoeste 0 997.3 0.2 62
2019-11-16 03:00:00 7.8 12 Sudoeste 22 Sudoeste 0 997.2 0.6 59
2019-11-16 02:00:00 6.5 5 Oeste 12 Oeste 0 997.1 1.2 68
2019-11-16 01:00:00 7.3 2 Sur 8 Noroeste 0 997.1 1.7 64
2019-11-16 00:00:00 8.6 5 Sudoeste 16 Sudoeste 0 996.6 1.6 57
2019-11-15 23:00:00 9.1 6 Sudoeste 18 Sudoeste 0 995.9 1.1 55
2019-11-15 22:00:00 10.5 11 Oeste 24 Oeste 0 995.4 1.3 50
2019-11-15 21:00:00 11.3 12 Sudoeste 23 Oeste 0 995 1.4 47
2019-11-15 20:00:00 10.8 10 Sudoeste 19 Sudoeste 0 994.8 1.7 48
2019-11-15 19:00:00 11.4 11 Sudoeste 19 Sudoeste 0 994.1 1.2 45
2019-11-15 18:00:00 12.2 11 Oeste 30 Oeste 0 993.6 1.2 42
2019-11-15 17:00:00 13.9 16 Oeste 39 Oeste 0 993.1 0.7 37
2019-11-15 16:00:00 14.8 18 Oeste 37 Oeste 0 992.9 0 33
2019-11-15 15:00:00 15.1 16 Oeste 39 Oeste 0 992.4 -1.2 32
2019-11-15 14:00:00 15.5 16 Oeste 37 Oeste 0 992.4 -1.5 33
2019-11-15 13:00:00 14.4 18 Oeste 40 Oeste 0 992.9 -0.8 35
2019-11-15 12:00:00 14 18 Oeste 39 Oeste 0 993.6 -0.1 38
2019-11-15 11:00:00 13.1 15 Oeste 45 Oeste 0 993.9 0.8 43
2019-11-15 10:00:00 11.8 21 Oeste 39 Oeste 0 993.7 1.1 47
2019-11-15 09:00:00 10.1 10 Oeste 20 Oeste 0 993.7 1.4 54
2019-11-15 08:00:00 8.9 7 Oeste 36 Oeste 0 993.1 1.2 55
2019-11-15 07:00:00 9.3 5 Sudoeste 15 Oeste 0 992.6 0.9 56
2019-11-15 06:00:00 10 9 Oeste 22 Oeste 0 992.3 0.9 52
2019-11-15 05:00:00 10 8 Oeste 20 Sudoeste 0 991.9 0.9 53
2019-11-15 04:00:00 10.1 13 Sudoeste 24 Sudoeste 0 991.7 0.6 52
2019-11-15 03:00:00 9.3 15 Sudoeste 53 Sudoeste 0 991.4 0.9 55
2019-11-15 02:00:00 10.3 8 Sur 45 Oeste 0 991 0.7 52
2019-11-15 01:00:00 11.8 20 Oeste 43 Oeste 0 991.1 0.1 45
2019-11-15 00:00:00 11.5 9 Oeste 42 Sudoeste 0 990.5 -0.3 47
2019-11-14 23:00:00 12.1 22 Oeste 48 Oeste 0 990.3 -0.3 44
2019-11-14 22:00:00 11.2 10 Sudoeste 48 Sudoeste 0 991 -0.1 49
2019-11-14 21:00:00 11 8 Oeste 37 Sudoeste 0 990.8 0.4 52
2019-11-14 20:00:00 10.5 12 Sudoeste 21 Sudoeste 0 990.6 0 56
2019-11-14 19:00:00 11.4 14 Oeste 40 Oeste 0 991.1 0.4 51
2019-11-14 18:00:00 11.5 15 Sudoeste 41 Oeste 0 990.4 -0.6 53
2019-11-14 17:00:00 13 22 Oeste 51 Oeste 0 990.6 -0.8 41
2019-11-14 16:00:00 13.3 26 Oeste 53 Oeste 0 990.7 0.6 37
2019-11-14 15:00:00 13.4 22 Oeste 56 Oeste 0 991 0.4 38
2019-11-14 14:00:00 13.1 23 Oeste 67 Oeste 0 991.4 -0.2 46
2019-11-14 13:00:00 17.1 30 Oeste 60 Oeste 0 990.1 -2.4 40
2019-11-14 12:00:00 17.1 21 Oeste 47 Oeste 0 990.6 -2.2 43
2019-11-14 11:00:00 16.2 26 Sudoeste 59 Oeste 0 991.6 -1.2 44
2019-11-14 10:00:00 15.4 19 Oeste 42 Oeste 0 992.5 -0.5 47
2019-11-14 09:00:00 13.4 7 Sudoeste 21 Sudoeste 0 992.8 -0.7 58
2019-11-14 08:00:00 12.3 10 Sur 15 Sudoeste 0 992.8 -1.3 65
2019-11-14 07:00:00 11.6 8 Oeste 18 Sudoeste 0 993 -2.3 68
2019-11-14 06:00:00 13.3 5 Sudoeste 24 Sudoeste 0 993.5 -3.4 61
2019-11-14 05:00:00 14.3 12 Sudoeste 28 Sudoeste 0 994.1 -3.6 58
2019-11-14 04:00:00 14.5 12 Sudoeste 23 Sudoeste 0 995.3 -3.1 60
2019-11-14 03:00:00 15.4 12 Sudoeste 21 Sudoeste 0 996.9 -2.3 58
2019-11-14 02:00:00 15.6 14 Sudoeste 33 Sudoeste 0 997.7 -2.7 57
2019-11-14 01:00:00 14 11 Oeste 23 Sudoeste 0 998.4 -2.3 62
2019-11-14 00:00:00 15.5 16 Sudoeste 28 Sudoeste 0 999.2 -1.4 54
2019-11-13 23:00:00 14.2 13 Sudoeste 25 Oeste 0 1000.4 -0.3 53
2019-11-13 22:00:00 13.7 10 Sudoeste 26 Sudoeste 0 1000.7 0.5 55
2019-11-13 21:00:00 11.7 9 Oeste 15 Oeste 0 1000.6 1 70
2019-11-13 20:00:00 12.1 8 Oeste 12 Oeste 0 1000.7 1.6 80
2019-11-13 19:00:00 13.3 5 Sudoeste 12 Oeste 0 1000.2 1.7 77
2019-11-13 18:00:00 15.8 4 Oeste 6 Oeste 0 999.6 2 69
2019-11-13 17:00:00 17.9 5 Este 16 Este 0 999.1 2 62
2019-11-13 16:00:00 19.4 12 Nordeste 29 Norte 0 998.5 1.4 57
2019-11-13 15:00:00 20.2 9 Norte 27 Noroeste 0 997.6 1.2 51
2019-11-13 14:00:00 17.8 15 Noroeste 38 Norte 0.8 997.1 0.7 61
2019-11-13 13:00:00 18.1 23 Norte 60 Oeste 0 997.1 1.5 58
2019-11-13 12:00:00 20.4 19 Oeste 46 Oeste 0 996.4 1.3 47
2019-11-13 11:00:00 18.1 25 Oeste 56 Oeste 0 996.4 1.7 55
2019-11-13 10:00:00 18 13 Oeste 33 Sudoeste 0 995.6 0.9 55
2019-11-13 09:00:00 16.2 12 Oeste 27 Oeste 0 995.1 -0.4 58
2019-11-13 08:00:00 15.8 12 Sudoeste 41 Oeste 0 994.7 -1.3 57
2019-11-13 07:00:00 15.1 14 Oeste 34 Oeste 0 994.7 -1.7 61
2019-11-13 06:00:00 14.6 12 Sudoeste 35 Sudoeste 0.6 995.5 -1.3 60
2019-11-13 05:00:00 15.1 12 Sudoeste 30 Sudoeste 0 996 -1.9 51
2019-11-13 04:00:00 14.8 14 Sudoeste 30 Sudoeste 0 996.4 -2.5 49
2019-11-13 03:00:00 14.4 16 Sudoeste 29 Sudoeste 0 996.8 -2.8 46
2019-11-13 02:00:00 14.6 13 Sudoeste 27 Sudoeste 0 997.9 -2.2 45
2019-11-13 01:00:00 14.8 14 Sudoeste 30 Sudoeste 0 998.9 -1.6 43
2019-11-13 00:00:00 14.7 14 Sudoeste 36 Sudoeste 0 999.6 -1 39
2019-11-12 23:00:00 14.7 15 Sudoeste 26 Oeste 0 1000.1 -0.1 37
2019-11-12 22:00:00 14.2 16 Oeste 31 Sudoeste 0 1000.5 1 39
2019-11-12 21:00:00 13.9 10 Oeste 24 Oeste 0 1000.6 1.3 42
2019-11-12 20:00:00 14.7 14 Oeste 39 Oeste 0 1000.2 1.3 40
2019-11-12 19:00:00 15.7 17 Oeste 36 Oeste 0 999.5 0.6 35
2019-11-12 18:00:00 16.6 9 Oeste 30 Oeste 0 999.3 -0.2 32
2019-11-12 17:00:00 18.6 11 Noroeste 31 Noroeste 0 998.9 -1.5 27
2019-11-12 16:00:00 20.2 10 Sudoeste 27 Oeste 0 998.9 -2.4 25
2019-11-12 15:00:00 20 13 Oeste 26 Oeste 0 999.5 -2.7 26
2019-11-12 14:00:00 19.2 12 Oeste 27 Oeste 0 1000.4 -2.1 25
2019-11-12 13:00:00 17.6 14 Noroeste 28 Noroeste 0 1001.3 -1.5 30
2019-11-12 12:00:00 17.1 10 Oeste 24 Oeste 0 1002.2 -0.7 30
2019-11-12 11:00:00 15.7 6 Oeste 18 Sudoeste 0 1002.5 -0.3 33
2019-11-12 10:00:00 13.6 7 Sudoeste 15 Sudoeste 0 1002.8 0.4 36
2019-11-12 09:00:00 10.4 10 Sudoeste 18 Oeste 0 1002.9 0.5 47
2019-11-12 08:00:00 8.7 9 Oeste 15 Oeste 0 1002.8 0.6 53
2019-11-12 07:00:00 9.2 9 Oeste 17 Oeste 0 1002.4 0.2 51
2019-11-12 06:00:00 9.6 10 Sudoeste 18 Sudoeste 0 1002.4 -0.1 51
2019-11-12 05:00:00 9.3 9 Oeste 18 Sudoeste 0 1002.2 -0.4 54
2019-11-12 04:00:00 8.7 6 Oeste 17 Oeste 0 1002.2 -0.8 59
2019-11-12 03:00:00 9.6 7 Sudoeste 15 Sudoeste 0 1002.5 -0.2 53
2019-11-12 02:00:00 11 9 Sudoeste 17 Oeste 0 1002.6 -0.2 47
2019-11-12 01:00:00 10.2 9 Oeste 16 Oeste 0 1003 0.2 56
2019-11-12 00:00:00 10.9 8 Oeste 19 Oeste 0 1002.7 0.3 61
2019-11-11 23:00:00 12.7 9 Sudoeste 17 Oeste 0 1002.8 0.8 55
2019-11-11 22:00:00 13.2 9 Oeste 21 Oeste 0 1002.8 1.3 54
2019-11-11 21:00:00 14.1 7 Oeste 18 Oeste 0 1002.4 1.7 51
2019-11-11 20:00:00 15.1 9 Oeste 25 Oeste 0 1002 1.4 47
2019-11-11 19:00:00 15.3 13 Oeste 30 Oeste 0 1001.5 0.8 45
2019-11-11 18:00:00 15.6 12 Oeste 25 Oeste 0 1000.7 0 42
2019-11-11 17:00:00 16.8 8 Oeste 22 Oeste 0 1000.6 -0.2 37
2019-11-11 16:00:00 17 11 Oeste 41 Oeste 0 1000.7 -1.1 34
2019-11-11 15:00:00 16.7 22 Oeste 37 Oeste 0 1000.7 -2.4 34
2019-11-11 14:00:00 17.1 21 Noroeste 42 Oeste 0 1000.8 -2.7 33
2019-11-11 13:00:00 16.6 20 Oeste 35 Oeste 0 1001.8 -2.1 36
2019-11-11 12:00:00 15.8 14 Oeste 33 Oeste 0 1003.1 -1.1 35
2019-11-11 11:00:00 14.6 12 Oeste 24 Oeste 0 1003.5 -0.5 39
2019-11-11 10:00:00 12.4 10 Oeste 20 Oeste 0 1003.9 0.2 44
2019-11-11 09:00:00 10.4 10 Sudoeste 22 Oeste 0 1004.2 -0.1 48
2019-11-11 08:00:00 7.9 7 Sudoeste 14 Oeste 0 1004 -0.2 55
2019-11-11 07:00:00 8.1 7 Sudoeste 15 Sudoeste 0 1003.7 -0.6 51
2019-11-11 06:00:00 7.7 6 Sudoeste 17 Sudoeste 0 1004.3 -0.2 53
2019-11-11 05:00:00 8.9 11 Sudoeste 18 Oeste 0 1004.2 -0.2 47
2019-11-11 04:00:00 8.5 9 Sudoeste 22 Sudoeste 0 1004.3 0 48
2019-11-11 03:00:00 8.4 11 Sudoeste 19 Sudoeste 0 1004.5 0.4 50
2019-11-11 02:00:00 8.6 9 Sudoeste 24 Oeste 0 1004.4 0.9 51
2019-11-11 01:00:00 8.8 12 Oeste 23 Oeste 0 1004.3 1.3 53
2019-11-11 00:00:00 9.6 12 Oeste 27 Oeste 0 1004.1 1 52
2019-11-10 23:00:00 10.8 9 Oeste 31 Oeste 0 1003.5 0.5 47
2019-11-10 22:00:00 10.7 12 Oeste 27 Noroeste 0 1003 0.6 50
2019-11-10 21:00:00 11.9 14 Oeste 38 Oeste 0 1003.1 1.7 45
2019-11-10 20:00:00 13.1 19 Oeste 41 Oeste 0 1003 2 40
2019-11-10 19:00:00 13.5 10 Oeste 30 Noroeste 0 1002.4 1.9 38
2019-11-10 18:00:00 14.5 16 Oeste 42 Oeste 0 1001.4 1 35
2019-11-10 17:00:00 15.3 18 Oeste 46 Oeste 0 1001 -0.1 33
2019-11-10 16:00:00 16 23 Oeste 49 Oeste 0 1000.5 -1.6 32
2019-11-10 15:00:00 16.9 23 Oeste 46 Oeste 0 1000.4 -2.7 31
2019-11-10 14:00:00 16.3 21 Oeste 44 Oeste 0 1001.1 -2.2 32
2019-11-10 13:00:00 15.7 17 Oeste 36 Oeste 0 1002.1 -1.6 33
2019-11-10 12:00:00 13.4 22 Oeste 41 Oeste 0 1003.1 -0.4 38
2019-11-10 11:00:00 13.6 15 Oeste 31 Oeste 0 1003.3 0.2 43
2019-11-10 10:00:00 11.7 12 Oeste 29 Oeste 0 1003.7 1.4 51
2019-11-10 09:00:00 11.1 13 Oeste 33 Oeste 0 1003.5 1.1 58
2019-11-10 08:00:00 10.1 12 Oeste 26 Oeste 0 1003.1 0.3 62
2019-11-10 07:00:00 10.4 18 Oeste 33 Oeste 0 1002.3 0.2 60
2019-11-10 06:00:00 10.2 14 Oeste 34 Oeste 0 1002.4 -0.1 67
2019-11-10 05:00:00 11.2 23 Oeste 40 Noroeste 0 1002.8 0.3 64
2019-11-10 04:00:00 13.6 9 Oeste 33 Sudoeste 0 1002.1 -1.1 59
2019-11-10 03:00:00 13.8 8 Sudoeste 22 Oeste 0 1002.5 -0.8 63
2019-11-10 02:00:00 14 12 Sudoeste 35 Oeste 0 1002.5 -1.1 62
2019-11-10 01:00:00 13.8 7 Sudoeste 22 Oeste 0 1003.2 -1.8 63
2019-11-10 00:00:00 12.6 8 Oeste 21 Oeste 0 1003.3 -1.8 70
2019-11-09 23:00:00 12.9 6 Oeste 30 Oeste 0 1003.6 -1.9 65
2019-11-09 22:00:00 12.1 4 Noroeste 15 Sudoeste 0.6 1005 -0.4 76
2019-11-09 21:00:00 14 9 Sudoeste 33 Oeste 0.4 1005.1 0.1 57
2019-11-09 20:00:00 15.2 17 Oeste 29 Oeste 0 1005.5 0.1 45
2019-11-09 19:00:00 14.6 7 Este 19 Oeste 0 1005.4 -0.3 39
2019-11-09 18:00:00 15.8 7 Sudoeste 13 Sudoeste 0 1005 -1.7 34
2019-11-09 17:00:00 16.7 9 Sudoeste 31 Noroeste 0 1005.4 -1.4 29
2019-11-09 16:00:00 17 14 Oeste 37 Noroeste 0 1005.7 -2 29
2019-11-09 15:00:00 18 15 Oeste 45 Oeste 0 1006.7 -2.2 27
2019-11-09 14:00:00 18.7 29 Oeste 58 Oeste 0 1006.8 -2.5 25
2019-11-09 13:00:00 18.2 18 Oeste 36 Oeste 0 1007.7 -1.8 29
2019-11-09 12:00:00 17.1 14 Oeste 32 Oeste 0 1008.9 -0.6 31
2019-11-09 11:00:00 16.1 10 Oeste 28 Oeste 0 1009.3 0.2 34
2019-11-09 10:00:00 14.2 12 Sudoeste 24 Oeste 0 1009.5 0.4 38
2019-11-09 09:00:00 11.9 9 Sudoeste 19 Oeste 0 1009.5 1 44
2019-11-09 08:00:00 10.2 9 Oeste 20 Oeste 0 1009.1 1.3 49
2019-11-09 07:00:00 10.8 4 Sudoeste 24 Oeste 0 1009.1 1.1 45
2019-11-09 06:00:00 10.7 7 Oeste 28 Sudoeste 0 1008.5 0.6 47
2019-11-09 05:00:00 12 14 Sudoeste 27 Sudoeste 0 1007.8 0.1 40
2019-11-09 04:00:00 10.7 6 Oeste 30 Oeste 0 1008 0.4 45
2019-11-09 03:00:00 12 12 Oeste 36 Oeste 0 1007.9 0.8 41
2019-11-09 02:00:00 12.3 13 Sudoeste 25 Sudoeste 0 1007.7 0.9 40
2019-11-09 01:00:00 13 13 Oeste 28 Oeste 0 1007.6 0.9 36
2019-11-09 00:00:00 13.2 12 Sudoeste 37 Oeste 0 1007.1 0.8 35
2019-11-08 23:00:00 13.1 13 Oeste 36 Oeste 0 1006.8 1 34
2019-11-08 22:00:00 12.4 11 Oeste 25 Oeste 0 1006.7 1.5 37
2019-11-08 21:00:00 13.4 14 Oeste 30 Sudoeste 0 1006.3 1.9 35
2019-11-08 20:00:00 14 17 Oeste 38 Oeste 0 1005.8 2.2 33
2019-11-08 19:00:00 13.5 15 Oeste 33 Oeste 0 1005.2 1.7 36
2019-11-08 18:00:00 14.6 19 Oeste 44 Oeste 0 1004.4 1.5 34
2019-11-08 17:00:00 15.5 17 Oeste 42 Oeste 0 1003.6 0.9 33
2019-11-08 16:00:00 16.5 20 Oeste 55 Oeste 0 1003.5 0.6 32
2019-11-08 15:00:00 16.5 31 Oeste 58 Oeste 0 1002.9 -0.3 31
2019-11-08 14:00:00 16.4 23 Oeste 51 Oeste 0 1002.7 -0.4 32
2019-11-08 13:00:00 15.6 22 Noroeste 49 Noroeste 0 1002.9 -0.3 34
2019-11-08 12:00:00 14.7 25 Noroeste 50 Noroeste 0 1003.2 0.4 34
2019-11-08 11:00:00 13.4 29 Oeste 52 Oeste 0 1003.1 1.3 36
2019-11-08 10:00:00 12.9 11 Oeste 29 Oeste 0 1003.2 2.2 39
2019-11-08 09:00:00 11.4 11 Oeste 31 Oeste 0 1002.8 2.1 45
2019-11-08 08:00:00 9.8 13 Oeste 33 Noroeste 0 1001.8 1.6 50
2019-11-08 07:00:00 10.3 19 Oeste 37 Oeste 0 1001 1.2 50
2019-11-08 06:00:00 10.2 8 Oeste 18 Oeste 0 1000.7 0.9 53
2019-11-08 05:00:00 9.8 3 Nordeste 20 Norte 0 1000.2 0.3 57
2019-11-08 04:00:00 10.3 7 Sudeste 17 Oeste 0 999.8 -1.1 53
2019-11-08 03:00:00 11.1 11 Oeste 36 Oeste 0 999.8 -0.1 51
2019-11-08 02:00:00 11.7 16 Oeste 48 Oeste 0 999.9 0.2 48
2019-11-08 01:00:00 12 16 Oeste 50 Oeste 0 1000.9 1.5 47
2019-11-08 00:00:00 12.8 10 Oeste 30 Oeste 0 999.9 0.5 38
2019-11-07 23:00:00 12.3 14 Sudoeste 33 Sudoeste 0 999.7 0.4 37
2019-11-07 22:00:00 13.8 12 Oeste 22 Oeste 0 999.4 0.4 31
2019-11-07 21:00:00 13.8 8 Oeste 19 Oeste 0 999.4 1.7 29
2019-11-07 20:00:00 15.1 9 Oeste 20 Oeste 0 999.3 2 25
2019-11-07 19:00:00 16.8 5 Sudoeste 27 Oeste 0 999 2 35
2019-11-07 18:00:00 18.7 8 Oeste 35 Oeste 0 997.7 0.3 45
2019-11-07 17:00:00 20.1 12 Oeste 36 Oeste 0 997.3 -1.1 44
2019-11-07 16:00:00 20.9 17 Oeste 34 Sudoeste 0 997 -1.6 41
2019-11-07 15:00:00 19.8 10 Sudoeste 28 Sudoeste 0 997.4 -2.2 49
2019-11-07 14:00:00 19.3 14 Sudoeste 37 Sudoeste 0 998.4 -1.4 48
2019-11-07 13:00:00 21.5 20 Oeste 42 Sudoeste 0 998.6 -1.4 42
2019-11-07 12:00:00 19.3 13 Sudoeste 28 Oeste 0 999.6 -0.6 48
2019-11-07 11:00:00 19.7 15 Sudoeste 28 Sudoeste 0 999.8 -0.3 45
2019-11-07 10:00:00 17.5 14 Sudoeste 26 Sudoeste 0 1000 0 51
2019-11-07 09:00:00 12.9 0 Calma 13 Sur 0 1000.2 0 67
2019-11-07 08:00:00 11.6 5 Oeste 16 Sudoeste 0 1000.1 -0.5 65
2019-11-07 07:00:00 12.6 7 Sudoeste 21 Sudoeste 0 1000 -1.1 57
2019-11-07 06:00:00 12.9 7 Sudoeste 25 Sudoeste 0 1000.2 -1.4 55
2019-11-07 05:00:00 12.9 11 Sudoeste 23 Sudoeste 0 1000.6 -1.7 54
2019-11-07 04:00:00 12.4 12 Sudoeste 22 Sudoeste 0 1001.1 -2.1 56
2019-11-07 03:00:00 13.1 13 Sudoeste 30 Sudoeste 0 1001.6 -1.8 53
2019-11-07 02:00:00 13.5 20 Sudoeste 36 Sudoeste 0 1002.3 -1.1 53
2019-11-07 01:00:00 13.5 21 Sudoeste 35 Sudoeste 0 1003.2 -0.2 54
2019-11-07 00:00:00 13.4 15 Sudoeste 30 Sudoeste 0 1003.4 0.3 51
2019-11-06 23:00:00 14 16 Sudoeste 31 Sudoeste 0 1003.4 0.6 46
2019-11-06 22:00:00 15 14 Sudoeste 26 Sudoeste 0 1003.4 1.3 42
2019-11-06 21:00:00 15.3 14 Sudoeste 21 Sudoeste 0 1003.1 1.6 43
2019-11-06 20:00:00 15.5 12 Sudoeste 33 Oeste 0 1002.8 1.3 43
2019-11-06 19:00:00 16 13 Oeste 28 Oeste 0 1002.1 0.7 41
2019-11-06 18:00:00 17.1 13 Oeste 40 Oeste 0 1001.5 0 41
2019-11-06 17:00:00 19.2 19 Oeste 40 Oeste 0 1001.5 -0.6 35
2019-11-06 16:00:00 21.6 18 Oeste 33 Oeste 0 1001.4 -1.5 30
2019-11-06 15:00:00 21.9 8 Sudoeste 28 Oeste 0 1001.5 -2.2 26
2019-11-06 14:00:00 21 17 Oeste 34 Oeste 0 1002.1 -1.8 28
2019-11-06 13:00:00 19.7 14 Noroeste 34 Oeste 0 1002.9 -1.2 31
2019-11-06 12:00:00 18.7 18 Noroeste 35 Noroeste 0 1003.7 -0.5 33
2019-11-06 11:00:00 18.1 15 Oeste 33 Noroeste 0 1003.9 0.3 33
2019-11-06 10:00:00 16.7 12 Sudoeste 31 Oeste 0 1004.1 0.8 38
2019-11-06 09:00:00 14.2 14 Oeste 30 Oeste 0 1004.2 1.4 47
2019-11-06 08:00:00 12 8 Oeste 22 Sudoeste 0 1003.6 0.7 56
2019-11-06 07:00:00 13 12 Sudoeste 26 Sudoeste 0 1003.3 0.5 50
2019-11-06 06:00:00 12 14 Oeste 29 Oeste 0 1002.8 0.1 57
2019-11-06 05:00:00 12.1 3 Norte 23 Sudoeste 0 1002.9 0.4 58
2019-11-06 04:00:00 13.2 12 Sudoeste 25 Sudoeste 0 1002.8 0.1 53
2019-11-06 03:00:00 13.9 13 Oeste 28 Oeste 0 1002.7 0.3 52
2019-11-06 02:00:00 14.3 17 Oeste 36 Oeste 0 1002.5 0 52
2019-11-06 01:00:00 14.6 10 Oeste 33 Sudoeste 0 1002.7 0.4 50
2019-11-06 00:00:00 14.9 13 Sudoeste 21 Sudoeste 0 1002.4 0.9 48
2019-11-05 23:00:00 14.6 7 Sudoeste 24 Sudoeste 0 1002.5 1.6 50
2019-11-05 22:00:00 15.2 11 Oeste 21 Sudoeste 0 1002.3 2.1 49
2019-11-05 21:00:00 15.8 9 Oeste 24 Oeste 0 1001.5 2.1 45
2019-11-05 20:00:00 15.5 3 Sudoeste 23 Oeste 0 1000.9 1.7 48
2019-11-05 19:00:00 16.2 12 Sudoeste 24 Sudoeste 0 1000.2 1 44
2019-11-05 18:00:00 17.4 15 Oeste 36 Oeste 0 999.4 0.9 39
2019-11-05 17:00:00 19 17 Oeste 48 Noroeste 0 999.2 0.7 33
2019-11-05 16:00:00 19.8 22 Oeste 51 Noroeste 0 999.2 -0.2 31
2019-11-05 15:00:00 19.8 25 Oeste 58 Oeste 0 998.5 -1.6 31
2019-11-05 14:00:00 19.3 29 Oeste 58 Oeste 0 998.5 -1.3 33
2019-11-05 13:00:00 18.8 24 Oeste 59 Oeste 0 999.4 -0.2 35
2019-11-05 12:00:00 17.9 26 Oeste 54 Oeste 0 1000.1 0.8 37
2019-11-05 11:00:00 18 21 Oeste 51 Oeste 0 999.8 0.7 37
2019-11-05 10:00:00 17 22 Oeste 47 Oeste 0 999.6 1.3 43
2019-11-05 09:00:00 15.9 17 Oeste 47 Oeste 0 999.3 1.4 49
2019-11-05 08:00:00 14.8 9 Oeste 33 Oeste 0 999.1 2.3 54
2019-11-05 07:00:00 14.4 11 Oeste 20 Oeste 0 998.3 2.2 56
2019-11-05 06:00:00 15.4 9 Oeste 38 Oeste 0 997.9 1.2 52
2019-11-05 05:00:00 17 22 Oeste 50 Oeste 0 996.8 0 46
2019-11-05 04:00:00 17.8 13 Sudoeste 45 Oeste 0 996.1 0.3 46
2019-11-05 03:00:00 17.8 11 Sudoeste 53 Oeste 0 996.7 0.9 57
2019-11-05 02:00:00 18.4 19 Oeste 45 Oeste 0 996.8 0.5 50
2019-11-05 01:00:00 18.3 10 Sudoeste 25 Oeste 0 995.8 -0.7 47
2019-11-05 00:00:00 18.8 17 Sudoeste 31 Sudoeste 0 995.8 -1.2 46
2019-11-04 23:00:00 18.9 14 Sudoeste 31 Sudoeste 0 996.3 -1.1 46
2019-11-04 22:00:00 19.5 18 Sudoeste 33 Sudoeste 0 996.5 -0.8 47
2019-11-04 21:00:00 19.3 6 Oeste 27 Sur 0 997 -0.3 47
2019-11-04 20:00:00 20.6 15 Sudoeste 43 Oeste 0 997.4 0.6 39
2019-11-04 19:00:00 21.1 18 Oeste 50 Sudoeste 0 997.3 0.3 37
2019-11-04 18:00:00 22 18 Oeste 48 Oeste 0 997.3 -0.3 41
2019-11-04 17:00:00 23.1 22 Oeste 57 Oeste 0 996.8 -1.7 38
2019-11-04 16:00:00 24.6 25 Oeste 54 Oeste 0 997 -2.2 33
2019-11-04 15:00:00 24.7 20 Oeste 52 Oeste 0 997.6 -2.4 34
2019-11-04 14:00:00 23.6 28 Oeste 63 Oeste 0 998.5 -2.5 34
2019-11-04 13:00:00 24.1 23 Oeste 67 Oeste 0 999.2 -1.7 36
2019-11-04 12:00:00 23.1 31 Oeste 63 Oeste 0 1000 -0.9 39
2019-11-04 11:00:00 21.5 23 Oeste 54 Oeste 0 1001 0.8 46
2019-11-04 10:00:00 20.7 24 Oeste 51 Oeste 0 1000.9 0.3 48
2019-11-04 09:00:00 19.7 10 Oeste 42 Oeste 0 1000.9 0.4 53
2019-11-04 08:00:00 19.2 16 Oeste 34 Oeste 0 1000.2 0.1 53
2019-11-04 07:00:00 18.7 8 Sudoeste 32 Oeste 0 1000.6 -0.2 55
2019-11-04 06:00:00 18.8 18 Sudoeste 49 Oeste 0 1000.5 -0.8 54
2019-11-04 05:00:00 18.4 28 Sudoeste 51 Sudoeste 0 1000.1 -1.4 53
2019-11-04 04:00:00 18.1 17 Oeste 39 Oeste 0 1000.8 -0.3 53
2019-11-04 03:00:00 17.8 12 Oeste 30 Oeste 0 1001.3 0.5 52
2019-11-04 02:00:00 17.3 10 Sudoeste 25 Oeste 0 1001.5 0.6 50
2019-11-04 01:00:00 16.7 8 Sudoeste 23 Sudoeste 0 1001.1 0.4 51
2019-11-04 00:00:00 18.4 13 Oeste 38 Oeste 0 1000.8 1.2 43
2019-11-03 23:00:00 18.3 13 Oeste 33 Oeste 0 1000.9 2.2 43
2019-11-03 22:00:00 18.1 12 Oeste 26 Oeste 0 1000.7 2.9 45
2019-11-03 21:00:00 18.2 10 Sudoeste 18 Sudoeste 0 999.6 2.9 44
2019-11-03 20:00:00 18.1 2 Este 24 Oeste 0 998.7 3.1 48
2019-11-03 19:00:00 19.6 12 Oeste 34 Oeste 0 997.8 2.9 41
2019-11-03 18:00:00 20.3 11 Oeste 44 Oeste 0 996.7 2.3 43
2019-11-03 17:00:00 22 20 Oeste 52 Oeste 0 995.6 1.8 38
2019-11-03 16:00:00 22.9 23 Oeste 51 Oeste 0 994.9 1.8 36
2019-11-03 15:00:00 22.8 22 Oeste 62 Oeste 0 994.4 1.2 38
2019-11-03 14:00:00 21 36 Noroeste 68 Oeste 0 993.8 1.1 57
2019-11-03 13:00:00 23.3 23 Oeste 58 Oeste 0 993.1 0.9 40
2019-11-03 12:00:00 22.9 21 Oeste 64 Oeste 0 993.2 1.1 39
2019-11-03 11:00:00 22.2 18 Oeste 50 Oeste 0 992.7 1 42
2019-11-03 10:00:00 20.9 15 Sudoeste 65 Noroeste 0 992.2 -0.2 45
2019-11-03 09:00:00 20.5 22 Sur 45 Sudoeste 0 992.1 -0.3 44
2019-11-03 08:00:00 19.6 26 Oeste 60 Oeste 0 991.7 -1.3 46
2019-11-03 07:00:00 19.7 18 Oeste 49 Sudoeste 0 992.4 -0.7 45
2019-11-03 06:00:00 20.2 21 Oeste 47 Oeste 0 992.4 -0.9 43
2019-11-03 05:00:00 20.2 19 Oeste 42 Oeste 0 993 -0.2 44
2019-11-03 04:00:00 20.5 19 Oeste 49 Oeste 0 993.1 -1 45
2019-11-03 03:00:00 21.1 22 Oeste 54 Oeste 0 993.3 -1 45
2019-11-03 02:00:00 21.7 21 Sudoeste 48 Oeste 0 993.2 -1.9 48
2019-11-03 01:00:00 21.9 18 Oeste 44 Oeste 0 994.1 -1.2 48
2019-11-03 00:00:00 21.2 9 Sudoeste 27 Sudoeste 0 994.3 -1.7 51
2019-11-02 23:00:00 21.8 17 Sudoeste 37 Sudoeste 0 995.1 -0.9 49
2019-11-02 22:00:00 21.9 18 Sudoeste 32 Sudoeste 0 995.3 -1.1 48
2019-11-02 21:00:00 21.5 10 Sudoeste 30 Oeste 0 996 -0.2 46
2019-11-02 20:00:00 22.2 11 Sudoeste 26 Sudoeste 0 996 -0.2 43
2019-11-02 19:00:00 22.5 10 Sudoeste 29 Oeste 0 996.4 0 41
2019-11-02 18:00:00 23.2 12 Sudoeste 33 Oeste 0 996.2 -0.9 40
2019-11-02 17:00:00 24.6 9 Oeste 38 Oeste 0 996.2 -1.8 38
2019-11-02 16:00:00 26.2 22 Oeste 40 Oeste 0 996.4 -2.4 33
2019-11-02 15:00:00 26.9 14 Oeste 29 Oeste 0 997.1 -2.8 33
2019-11-02 14:00:00 25.7 19 Oeste 46 Oeste 0 998 -2.7 37
2019-11-02 13:00:00 25.8 19 Oeste 36 Noroeste 0 998.8 -2 37
2019-11-02 12:00:00 24.7 19 Oeste 40 Oeste 0 999.9 -1.1 42
2019-11-02 11:00:00 23.3 18 Oeste 31 Noroeste 0 1000.7 -0.2 47
2019-11-02 10:00:00 21.9 17 Sudoeste 31 Sudoeste 0 1000.8 -0.6 52
2019-11-02 09:00:00 20.7 9 Sudoeste 19 Oeste 0 1001 -0.6 58
2019-11-02 08:00:00 20.4 8 Oeste 25 Oeste 0 1000.9 -0.9 58
2019-11-02 07:00:00 21 8 Sudoeste 21 Oeste 0 1001.4 -0.9 55
2019-11-02 06:00:00 20.9 10 Oeste 31 Oeste 0 1001.6 -1 56
2019-11-02 05:00:00 21.5 9 Oeste 27 Oeste 0 1001.8 -1.2 54
2019-11-02 04:00:00 21.8 13 Oeste 39 Oeste 0 1002.3 -1.4 55
2019-11-02 03:00:00 21.4 6 Oeste 22 Oeste 0 1002.6 -1.6 56
2019-11-02 02:00:00 21.7 5 Sur 14 Sudoeste 0 1003 -1.4 56
2019-11-02 01:00:00 22.2 5 Sudoeste 27 Noroeste 0 1003.7 -0.9 55
2019-11-02 00:00:00 22.5 14 Oeste 37 Noroeste 0 1004.2 -0.1 55
2019-11-01 23:00:00 22.7 13 Oeste 29 Oeste 0 1004.4 0 56
2019-11-01 22:00:00 23.3 15 Oeste 28 Oeste 0 1004.6 0.1 53
2019-11-01 21:00:00 24 11 Sudoeste 27 Oeste 0 1004.3 0.1 50
2019-11-01 20:00:00 23.7 9 Sudoeste 17 Sudoeste 0 1004.4 0 50
2019-11-01 19:00:00 23.9 4 Sudeste 19 Oeste 0 1004.5 0 49
2019-11-01 18:00:00 25 11 Sudoeste 40 Oeste 0 1004.2 -0.8 46
2019-11-01 17:00:00 26.3 19 Oeste 44 Oeste 0 1004.4 -1.5 43
2019-11-01 16:00:00 27.4 21 Oeste 44 Oeste 0 1004.5 -2.6 40
2019-11-01 15:00:00 26.4 19 Oeste 36 Oeste 0 1005 -3.1 42
2019-11-01 14:00:00 26.8 19 Oeste 37 Oeste 0 1005.9 -3 41
2019-11-01 13:00:00 26.9 17 Oeste 33 Oeste 0 1007.1 -2 42
2019-11-01 12:00:00 24.9 10 Sudoeste 33 Oeste 0 1008.1 -0.8 48
2019-11-01 11:00:00 25.4 14 Oeste 25 Oeste 0 1008.9 0.2 48
2019-11-01 10:00:00 23.8 8 Sudoeste 18 Sudoeste 0 1009.1 0.5 54
2019-11-01 09:00:00 20 9 Sudoeste 21 Oeste 0 1008.9 -0.1 68
2019-11-01 08:00:00 16.8 5 Sudoeste 12 Oeste 0 1008.7 -0.3 80
2019-11-01 07:00:00 16.9 3 Norte 16 Oeste 0 1008.6 -0.3 79
2019-11-01 06:00:00 16.9 7 Sudeste 12 Oeste 0 1009 -0.2 78
2019-11-01 05:00:00 17.2 4 Sudoeste 8 Este 0 1009 -0.8 74
2019-11-01 04:00:00 17.5 6 Oeste 18 Oeste 0 1008.9 -1 74
2019-11-01 03:00:00 17.8 5 Oeste 20 Oeste 0 1009.2 -1.1 69
2019-11-01 02:00:00 17.9 3 Noroeste 11 Oeste 0 1009.8 -0.6 71
2019-11-01 01:00:00 18.5 3 Sudoeste 10 Oeste 0 1009.9 -0.6 67
2019-11-01 00:00:00 18.8 4 Sudeste 8 Este 0 1010.3 0.1 68
2019-10-31 23:00:00 19.5 0 Calma 8 Oeste 0 1010.4 0.6 64
2019-10-31 22:00:00 20.7 4 Sudoeste 9 Sudoeste 0 1010.5 1.6 58
2019-10-31 21:00:00 19.9 0 Calma 16 Oeste 0 1010.2 1.8 63
2019-10-31 20:00:00 20.6 9 Oeste 22 Oeste 0 1009.8 1.5 55
2019-10-31 19:00:00 22.4 11 Sudoeste 19 Sudoeste 0 1008.9 0.5 48
2019-10-31 18:00:00 24.2 11 Sudoeste 31 Oeste 0 1008.4 -0.2 44
2019-10-31 17:00:00 26.2 15 Oeste 33 Oeste 0 1008.3 -0.8 39
2019-10-31 16:00:00 27.7 13 Oeste 27 Oeste 0 1008.4 -1.1 37
2019-10-31 15:00:00 26.3 10 Oeste 27 Oeste 0 1008.6 -1.9 41
2019-10-31 14:00:00 26.8 17 Oeste 38 Oeste 0 1009.1 -1.5 39
2019-10-31 13:00:00 26.6 15 Oeste 39 Sudoeste 0 1009.5 -1.2 41
2019-10-31 12:00:00 25.9 14 Oeste 42 Oeste 0 1010.5 0.3 43
2019-10-31 11:00:00 24.7 13 Oeste 30 Oeste 0 1010.6 0.6 46
2019-10-31 10:00:00 23.2 11 Oeste 21 Oeste 0 1010.7 1 53
2019-10-31 09:00:00 21.7 13 Sudoeste 23 Oeste 0 1010.2 0.6 57
2019-10-31 08:00:00 17.9 4 Oeste 15 Sudoeste 0 1010 0.8 74
2019-10-31 07:00:00 17.6 3 Oeste 18 Sudoeste 0 1009.7 0.2 73
2019-10-31 06:00:00 19.4 9 Oeste 21 Oeste 0 1009.6 -0.3 62
2019-10-31 05:00:00 19.4 9 Oeste 26 Oeste 0 1009.2 -1.1 63
2019-10-31 04:00:00 19.3 13 Sudoeste 22 Sudoeste 0 1009.5 -0.9 62
2019-10-31 03:00:00 17.6 6 Noroeste 11 Oeste 0 1009.9 -0.7 77
2019-10-31 02:00:00 17.9 3 Oeste 8 Oeste 0 1010.3 -0.4 76
2019-10-31 01:00:00 17.8 0 Calma 6 Oeste 0 1010.4 0.1 75
2019-10-31 00:00:00 18.6 3 Oeste 9 Sudoeste 0 1010.6 0.7 69
2019-10-30 23:00:00 18.8 0 Calma 11 Sudoeste 0 1010.7 1.3 68
2019-10-30 22:00:00 19.7 3 Sudoeste 15 Sudoeste 0 1010.3 1.3 57
2019-10-30 21:00:00 20.4 6 Oeste 20 Oeste 0 1009.9 1.1 55
2019-10-30 20:00:00 20.5 7 Oeste 18 Sudoeste 0 1009.4 0.7 57
2019-10-30 19:00:00 23 8 Sudoeste 17 Sudoeste 0 1009 0.4 43
2019-10-30 18:00:00 23.4 7 Sudoeste 12 Sudoeste 0 1008.8 0 52
2019-10-30 17:00:00 25.2 4 Nordeste 9 Este 0 1008.7 -0.3 47
2019-10-30 16:00:00 26.8 6 Este 16 Nordeste 0 1008.6 -1.2 39
2019-10-30 15:00:00 27 3 Oeste 11 Nordeste 0 1008.8 -1.8 38
2019-10-30 14:00:00 26.1 5 Este 12 Sudeste 0 1009 -2.1 41
2019-10-30 13:00:00 24.7 5 Nordeste 10 Oeste 0 1009.8 -1.3 44
2019-10-30 12:00:00 24 3 Oeste 11 Oeste 0 1010.6 0.1 48
2019-10-30 11:00:00 21.5 6 Oeste 12 Oeste 0 1011.1 1.2 59
2019-10-30 10:00:00 19 6 Sudoeste 11 Sudoeste 0 1011.1 1.9 66
2019-10-30 09:00:00 15.5 3 Oeste 9 Sudoeste 0 1010.5 1.3 85
2019-10-30 08:00:00 12.6 6 Oeste 11 Oeste 0 1009.9 1 91
2019-10-30 07:00:00 12.5 2 Sudoeste 10 Oeste 0 1009.2 0.1 88
2019-10-30 06:00:00 13.2 6 Oeste 12 Oeste 0 1009.2 0 88
2019-10-30 05:00:00 13.3 5 Oeste 11 Oeste 0 1008.9 0 86
2019-10-30 04:00:00 13.7 7 Oeste 13 Oeste 0 1009.1 0.2 86
2019-10-30 03:00:00 13.9 4 Oeste 11 Oeste 0 1009.2 0.4 86
2019-10-30 02:00:00 14.7 4 Oeste 15 Oeste 0 1008.9 0 83
2019-10-30 01:00:00 14.5 7 Oeste 13 Oeste 0 1008.9 0.2 87
2019-10-30 00:00:00 15.1 8 Oeste 13 Oeste 0 1008.8 0.4 88
2019-10-29 23:00:00 15.7 5 Sudoeste 11 Sudoeste 0 1008.9 1.3 90
2019-10-29 22:00:00 16.8 3 Oeste 4 Oeste 0 1008.7 2.1 88
2019-10-29 21:00:00 17.9 2 Sur 8 Sudeste 0 1008.4 2.6 86
2019-10-29 20:00:00 19.1 4 Este 8 Sudoeste 0 1007.6 2.5 83
2019-10-29 19:00:00 21 5 Sudeste 10 Sudeste 0 1006.6 1.7 72
2019-10-29 18:00:00 23 2 Nordeste 19 Norte 0 1005.8 0.9 63
2019-10-29 17:00:00 26.8 3 Este 9 Nordeste 0 1005.1 -0.1 40
2019-10-29 16:00:00 27.5 6 Nordeste 16 Nordeste 0 1004.9 -0.9 37
2019-10-29 15:00:00 27.1 6 Nordeste 12 Nordeste 0 1004.9 -1.6 37
2019-10-29 14:00:00 27.4 3 Norte 11 Nordeste 0 1005.2 -1.7 40
2019-10-29 13:00:00 25.6 3 Nordeste 10 Nordeste 0 1005.8 -1 40
2019-10-29 12:00:00 24.1 3 Norte 10 Oeste 0 1006.5 0.2 48
2019-10-29 11:00:00 21 4 Oeste 10 Oeste 0 1006.9 1.3 61
2019-10-29 10:00:00 18.1 6 Sudoeste 9 Sudoeste 0 1006.8 1.8 71
2019-10-29 09:00:00 14.3 2 Sur 7 Oeste 0 1006.3 1.5 86
2019-10-29 08:00:00 13.1 3 Sudoeste 7 Oeste 0 1005.6 0.8 88
2019-10-29 07:00:00 13.6 4 Sudoeste 7 Sudoeste 0 1005 0.2 87
2019-10-29 06:00:00 13.7 5 Sudoeste 7 Sudoeste 0 1004.8 -0.3 88
2019-10-29 05:00:00 13.8 3 Sudoeste 6 Noroeste 0 1004.8 -0.7 89
2019-10-29 04:00:00 13.9 2 Sur 7 Sur 0 1004.8 -1 89
2019-10-29 03:00:00 13.5 3 Sur 7 Sudoeste 0 1005.1 -0.8 91
2019-10-29 02:00:00 14 3 Sudoeste 5 Oeste 0 1005.5 -0.6 91
2019-10-29 01:00:00 13.7 4 Sudoeste 10 Oeste 0 1005.8 -0.3 92
2019-10-29 00:00:00 14.4 6 Sudoeste 9 Oeste 0 1005.9 0.2 91
2019-10-28 23:00:00 14.6 6 Sudoeste 9 Sudoeste 0 1006.1 0.5 91
2019-10-28 22:00:00 15.8 4 Sur 8 Este 0 1006.1 0.6 90
2019-10-28 21:00:00 17.1 5 Sudoeste 12 Sudoeste 0 1005.7 0.5 87
2019-10-28 20:00:00 17.1 3 Oeste 6 Oeste 0 1005.6 0.4 86
2019-10-28 19:00:00 18.4 3 Norte 8 Este 0 1005.5 0 82
2019-10-28 18:00:00 20 6 Nordeste 8 Nordeste 0 1005.2 -0.8 78
2019-10-28 17:00:00 21.1 5 Norte 9 Este 0 1005.2 -1 71
2019-10-28 16:00:00 22.4 5 Este 9 Este 0 1005.5 -1.8 60
2019-10-28 15:00:00 20.8 3 Nordeste 8 Este 0 1006 -1.6 65
2019-10-28 14:00:00 21.2 5 Nordeste 9 Este 0 1006.2 -1.8 63
2019-10-28 13:00:00 20.6 4 Nordeste 7 Nordeste 0 1007.3 -0.7 64
2019-10-28 12:00:00 19.7 5 Este 11 Este 0 1007.6 -0.4 68
2019-10-28 11:00:00 19.2 5 Norte 17 Sudoeste 0 1008 0 72
2019-10-28 10:00:00 18.3 5 Este 12 Sudoeste 0 1008 0.1 73
2019-10-28 09:00:00 15.9 3 Sudeste 9 Sudoeste 0 1008 -0.1 84
2019-10-28 08:00:00 13 0 Calma 5 Sudeste 0 1008 0 93
2019-10-28 07:00:00 12.7 3 Este 11 Oeste 0 1007.9 -0.6 92
2019-10-28 06:00:00 12.9 6 Oeste 14 Sudoeste 0 1008.1 -0.6 91
2019-10-28 05:00:00 13.1 4 Oeste 9 Sudoeste 0 1008 -1.4 90
2019-10-28 04:00:00 13.9 4 Sudoeste 13 Sudoeste 0 1008.5 -1.4 87
2019-10-28 03:00:00 13.8 5 Oeste 9 Oeste 0 1008.7 -1.3 89
2019-10-28 02:00:00 14.5 5 Oeste 8 Oeste 0 1009.4 -1.1 89
2019-10-28 01:00:00 15.5 6 Oeste 13 Oeste 0 1009.9 -0.6 88
2019-10-28 00:00:00 15 6 Oeste 10 Oeste 0 1010 -0.3 90
2019-10-27 23:00:00 15.8 4 Oeste 10 Oeste 0 1010.5 0.5 89
2019-10-27 22:00:00 15.8 5 Oeste 10 Oeste 0 1010.5 1 87
2019-10-27 21:00:00 16.7 5 Oeste 11 Sudoeste 0 1010.3 1.3 85
2019-10-27 20:00:00 17.4 10 Sudoeste 15 Sudoeste 0 1010 1.1 84
2019-10-27 19:00:00 18.6 5 Sudoeste 9 Oeste 0 1009.5 0.6 77
2019-10-27 18:00:00 20.3 3 Norte 14 Norte 0 1009 -0.4 71
2019-10-27 17:00:00 22.3 10 Norte 16 Norte 0 1008.9 -0.9 60
2019-10-27 16:00:00 24.3 5 Norte 14 Nordeste 0 1008.9 -1.7 51
2019-10-27 15:00:00 23.1 6 Norte 12 Nordeste 0 1009.4 -1.9 55
2019-10-27 14:00:00 23.3 4 Este 12 Noroeste 0 1009.8 -2.1 48
2019-10-27 13:00:00 22 4 Norte 11 Norte 0 1010.6 -1.5 55
2019-10-27 12:00:00 20.8 3 Este 12 Nordeste 0 1011.3 -0.7 60
2019-10-27 11:00:00 20.2 3 Este 9 Sur 0 1011.9 0.3 63
2019-10-27 10:00:00 17.7 3 Oeste 9 Oeste 0 1012.1 0.9 73
2019-10-27 09:00:00 15 4 Sur 15 Sudoeste 0 1012 0.8 83
2019-10-27 08:00:00 13.1 5 Oeste 12 Oeste 0 1011.6 0.5 88
2019-10-27 07:00:00 13.2 8 Oeste 13 Oeste 0 1011.2 0.2 89
2019-10-27 06:00:00 13.3 6 Sudoeste 13 Sudoeste 0 1011.2 -0.2 88
2019-10-27 05:00:00 13.2 5 Oeste 12 Oeste 0 1011.1 -0.6 88
2019-10-27 04:00:00 13.3 2 Sudoeste 9 Oeste 0 1011 -1 90
2019-10-27 03:00:00 13.9 4 Sudoeste 14 Oeste 0 1011.4 -0.4 88
2019-10-27 02:00:00 14.6 8 Sudoeste 15 Oeste 0 1011.7 -0.2 85
2019-10-27 01:00:00 14.6 7 Oeste 10 Oeste 0 1011.8 0.3 89
2019-10-27 00:00:00 14.8 6 Oeste 12 Oeste 0 1011.9 1 88
2019-10-26 23:00:00 15.3 8 Oeste 12 Oeste 0 1011.9 1.8 86
2019-10-26 22:00:00 16.3 7 Oeste 13 Oeste 0 1011.5 2.1 84
2019-10-26 21:00:00 17.2 6 Sudoeste 10 Noroeste 0 1010.9 2 79
2019-10-26 20:00:00 18.6 3 Oeste 12 Noroeste 0 1010.1 1 73
2019-10-26 19:00:00 19.9 6 Norte 17 Norte 0 1009.4 0.1 68
2019-10-26 18:00:00 22.1 10 Norte 17 Norte 0 1008.9 -0.9 60
2019-10-26 17:00:00 23.5 10 Norte 22 Norte 0 1009.1 -1.6 54
2019-10-26 16:00:00 23.8 8 Norte 17 Norte 0 1009.3 -2.2 46
2019-10-26 15:00:00 23.1 8 Nordeste 15 Este 0 1009.8 -2 48
2019-10-26 14:00:00 22.5 6 Este 13 Nordeste 0 1010.7 -0.9 49
2019-10-26 13:00:00 21.2 4 Norte 9 Oeste 0 1011.5 0.1 52
2019-10-26 12:00:00 19.6 3 Noroeste 10 Sudeste 0 1011.8 0.9 57
2019-10-26 11:00:00 17.4 2 Noroeste 11 Sudoeste 0 1011.6 0.9 65
2019-10-26 10:00:00 14.6 7 Sudoeste 12 Sudoeste 0 1011.4 0.9 77
2019-10-26 09:00:00 11.6 3 Sudoeste 11 Oeste 0 1010.9 0.7 88
2019-10-26 08:00:00 11.3 3 Oeste 12 Sudoeste 0 1010.7 0.6 88
2019-10-26 07:00:00 11.1 9 Oeste 14 Oeste 0 1010.5 0.2 88
2019-10-26 06:00:00 11.4 5 Oeste 12 Oeste 0 1010.2 -0.3 87
2019-10-26 05:00:00 11.4 3 Sudoeste 12 Oeste 0 1010.1 -0.7 88
2019-10-26 04:00:00 11.6 6 Sudoeste 9 Oeste 0 1010.3 -0.9 86
2019-10-26 03:00:00 12.1 5 Sudoeste 11 Sudoeste 0 1010.5 -0.8 84
2019-10-26 02:00:00 12.6 5 Sudoeste 12 Sudoeste 0 1010.8 -0.3 83
2019-10-26 01:00:00 13.3 4 Sudoeste 13 Sudoeste 0 1011.2 0.2 80
2019-10-26 00:00:00 13.9 8 Oeste 13 Oeste 0 1011.3 0.5 78
2019-10-25 23:00:00 14.8 7 Oeste 13 Oeste 0 1011.1 0.8 75
2019-10-25 22:00:00 15.2 6 Oeste 13 Oeste 0 1011 1.4 75
2019-10-25 21:00:00 16.2 9 Oeste 12 Oeste 0 1010.8 1.2 71
2019-10-25 20:00:00 18.7 2 Nordeste 8 Este 0 1010.3 0.5 58
2019-10-25 19:00:00 21.5 3 Norte 7 Nordeste 0 1009.6 -0.3 44
2019-10-25 18:00:00 23.7 5 Nordeste 12 Nordeste 0 1009.6 -1 36
2019-10-25 17:00:00 24.9 6 Este 13 Nordeste 0 1009.8 -1.5 35
2019-10-25 16:00:00 25.3 4 Nordeste 13 Norte 0 1009.9 -2.1 33
2019-10-25 15:00:00 24.4 6 Norte 12 Norte 0 1010.6 -1.4 33
2019-10-25 14:00:00 23.4 5 Nordeste 12 Nordeste 0 1011.3 -0.8 36
2019-10-25 13:00:00 22.7 3 Nordeste 10 Sudeste 0 1012 -0.2 40
2019-10-25 12:00:00 20.2 3 Nordeste 11 Sudeste 0 1012 -0.2 48
2019-10-25 11:00:00 17.7 3 Sudoeste 10 Sudoeste 0 1012.1 0 54
2019-10-25 10:00:00 13.7 3 Oeste 9 Este 0 1012.2 -0.1 75
2019-10-25 09:00:00 10.2 4 Oeste 9 Este 0 1012.2 0.3 86
2019-10-25 08:00:00 10 4 Sur 17 Oeste 0 1012.1 0.1 86
2019-10-25 07:00:00 9.9 3 Norte 9 Oeste 0 1012.3 0.3 84
2019-10-25 06:00:00 10.3 2 Sudoeste 8 Oeste 0 1011.9 0 84
2019-10-25 05:00:00 10.7 2 Sudoeste 8 Sudeste 0 1012 -0.1 82
2019-10-25 04:00:00 11.3 3 Noroeste 14 Oeste 0 1012 0.2 80
2019-10-25 03:00:00 11.4 5 Noroeste 13 Oeste 0 1011.9 0.3 79
2019-10-25 02:00:00 12.8 6 Oeste 11 Oeste 0 1012.1 1 70
2019-10-25 01:00:00 14.2 8 Oeste 17 Oeste 0 1011.8 1.6 64
2019-10-25 00:00:00 14.9 4 Sudoeste 15 Sudoeste 0 1011.6 2.1 59
2019-10-24 23:00:00 16 4 Sur 19 Sudoeste 0 1011.1 2.3 53
2019-10-24 22:00:00 16.6 10 Sudoeste 18 Sudoeste 0 1010.2 2.6 51
2019-10-24 21:00:00 16.9 10 Oeste 21 Sudoeste 0 1009.5 2.3 51
2019-10-24 20:00:00 18 12 Oeste 25 Sudoeste 0 1008.8 1.9 47
2019-10-24 19:00:00 19.8 8 Sudoeste 19 Oeste 0 1007.6 1.3 42
2019-10-24 18:00:00 21 12 Oeste 29 Oeste 0 1007.2 0.9 38
2019-10-24 17:00:00 21.9 17 Oeste 36 Oeste 0 1006.9 0.6 35
2019-10-24 16:00:00 21.5 16 Oeste 37 Oeste 0 1006.3 -0.2 36
2019-10-24 15:00:00 21 15 Oeste 39 Noroeste 0 1006.3 -0.1 41
2019-10-24 14:00:00 20.1 15 Oeste 38 Oeste 0 1006.3 0.1 43
2019-10-24 13:00:00 19.6 18 Oeste 37 Oeste 0 1006.5 1.1 45
2019-10-24 12:00:00 18.6 15 Oeste 39 Noroeste 0 1006.4 1.8 47
2019-10-24 11:00:00 17.3 17 Oeste 33 Oeste 0 1006.2 2.6 52
2019-10-24 10:00:00 15.3 6 Sudoeste 15 Oeste 0 1005.4 2.6 59
2019-10-24 09:00:00 12.7 9 Oeste 24 Oeste 0 1004.6 2.4 66
2019-10-24 08:00:00 12.5 12 Sudoeste 22 Sudoeste 0 1003.6 1.5 65
2019-10-24 07:00:00 11.7 13 Sudoeste 22 Sudoeste 0 1002.8 1.2 70
2019-10-24 06:00:00 11.4 13 Oeste 27 Oeste 0 1002.2 0.8 73
2019-10-24 05:00:00 11.1 7 Sudoeste 18 Sur 0 1002.1 0.9 75
2019-10-24 04:00:00 11.2 10 Sudoeste 18 Sudoeste 0 1001.6 0.5 75
2019-10-24 03:00:00 10.6 4 Oeste 18 Sudoeste 0 1001.4 0 77
2019-10-24 02:00:00 10.4 5 Noroeste 14 Oeste 0 1001.2 0.4 79
2019-10-24 01:00:00 12 8 Sudoeste 15 Sudoeste 0 1001.1 0.9 68
2019-10-24 00:00:00 11.5 3 Oeste 15 Sudoeste 0 1001.4 1.4 72
2019-10-23 23:00:00 12.9 12 Sudoeste 19 Sudoeste 0 1000.8 1.1 63
2019-10-23 22:00:00 14.1 11 Sudoeste 24 Sudoeste 0 1000.2 1.1 57
2019-10-23 21:00:00 14.2 10 Sudoeste 21 Sudoeste 0 1000 1.4 62
2019-10-23 20:00:00 14.1 9 Sudoeste 20 Oeste 0 999.7 1.7 61
2019-10-23 19:00:00 15.3 14 Oeste 30 Oeste 0 999.1 1.6 52
2019-10-23 18:00:00 16.5 16 Oeste 39 Oeste 0 998.6 1.3 48
2019-10-23 17:00:00 18.8 11 Oeste 45 Oeste 0 998 0.5 44
2019-10-23 16:00:00 18.7 9 Oeste 30 Oeste 0 997.5 -0.3 44
2019-10-23 15:00:00 19.9 14 Sudoeste 26 Sur 0 997.3 -0.5 33
2019-10-23 14:00:00 18.7 14 Sudoeste 27 Sudoeste 0 997.5 -0.5 38
2019-10-23 13:00:00 18 10 Sudoeste 33 Sudoeste 0 997.8 0.2 45
2019-10-23 12:00:00 16.7 19 Sudoeste 40 Sudoeste 0 997.8 0.7 49
2019-10-23 11:00:00 15.2 12 Sudoeste 24 Sudoeste 0 998 1.4 55
2019-10-23 10:00:00 13.8 9 Sudoeste 20 Sudoeste 0 997.6 1.3 58
2019-10-23 09:00:00 13.3 12 Sudoeste 26 Sudoeste 0 997.1 1.1 58
2019-10-23 08:00:00 12.2 11 Sudoeste 25 Sudoeste 0 996.6 1 66
2019-10-23 07:00:00 12.2 13 Sudoeste 27 Sudoeste 0 996.3 0.4 67
2019-10-23 06:00:00 12.8 14 Sudoeste 26 Sudoeste 0 996 0.2 68
2019-10-23 05:00:00 12.5 15 Sudoeste 23 Sudoeste 0 995.6 0 69
2019-10-23 04:00:00 12.5 12 Sudoeste 24 Sudoeste 0 995.9 0.1 71
2019-10-23 03:00:00 11.9 8 Oeste 18 Sudoeste 0 995.8 0.1 81
2019-10-23 02:00:00 13.1 13 Sudoeste 21 Sudoeste 0 995.6 -1.4 76
2019-10-23 01:00:00 12.9 12 Sudoeste 21 Sudoeste 0 995.8 -1 78
2019-10-23 00:00:00 13.2 8 Oeste 15 Oeste 0 995.7 -0.9 81
2019-10-22 23:00:00 13.9 3 Sur 10 Oeste 0 997 1.2 88
2019-10-22 22:00:00 14.4 5 Sudoeste 10 Nordeste 0 996.8 1.1 81
2019-10-22 21:00:00 14.7 9 Sudoeste 19 Oeste 0 996.6 0.3 79
2019-10-22 20:00:00 14.5 6 Oeste 14 Oeste 0 995.8 -1.6 83
2019-10-22 19:00:00 15.3 5 Noroeste 13 Sur 0 995.7 -1.5 82
2019-10-22 18:00:00 16 2 Noroeste 10 Sudoeste 0 996.3 -2.4 80
2019-10-22 17:00:00 15.7 8 Sudoeste 15 Sudoeste 0 997.4 -1.8 69
2019-10-22 16:00:00 14.6 8 Sudoeste 16 Sudoeste 0.2 997.2 -3.4 82
2019-10-22 15:00:00 13.8 10 Sudoeste 22 Sudoeste 0.8 998.7 -1.7 85
2019-10-22 14:00:00 13.8 12 Oeste 23 Oeste 1.2 999.2 -1.8 88
2019-10-22 13:00:00 13.4 11 Oeste 24 Sudoeste 1.4 1000.6 -2 89
2019-10-22 12:00:00 14.2 10 Oeste 19 Oeste 0.2 1000.4 -1.5 91
2019-10-22 11:00:00 13.8 9 Noroeste 26 Noroeste 2.2 1001 -1.4 93
2019-10-22 10:00:00 13.6 4 Oeste 21 Oeste 3.4 1002.6 0.4 93
2019-10-22 09:00:00 13.4 2 Norte 12 Sudoeste 2 1001.9 -1.7 93
2019-10-22 08:00:00 13.1 5 Sudoeste 16 Noroeste 2.4 1002.4 -1.6 93
2019-10-22 07:00:00 12.9 2 Nordeste 5 Oeste 2.4 1002.2 -3 93
2019-10-22 06:00:00 12.8 3 Sudoeste 14 Oeste 10.4 1003.6 -2.3 93
2019-10-22 05:00:00 12.8 6 Sudeste 27 Norte 9.6 1004 -1.5 92
2019-10-22 04:00:00 13.6 3 Nordeste 12 Nordeste 6.6 1005.2 -1.4 90
2019-10-22 03:00:00 13.9 8 Oeste 14 Sudoeste 2 1005.9 -1 87
2019-10-22 02:00:00 14.2 0 Calma 12 Sudoeste 0 1005.5 -1.5 78
2019-10-22 01:00:00 14.2 6 Oeste 12 Oeste 0 1006.6 0.2 80
2019-10-22 00:00:00 14.8 5 Oeste 9 Oeste 0 1006.9 0.2 79
2019-10-21 23:00:00 14.6 4 Sur 8 Oeste 0 1007 0.3 78
2019-10-21 22:00:00 15.5 3 Sur 7 Oeste 0 1006.4 0.1 69
2019-10-21 21:00:00 16 5 Sudoeste 9 Oeste 0 1006.7 0.7 67
2019-10-21 20:00:00 16.4 5 Noroeste 11 Sur 0 1006.7 0.7 66
2019-10-21 19:00:00 18 6 Sur 11 Sudeste 0 1006.3 0.1 55
2019-10-21 18:00:00 18.9 4 Este 16 Este 0 1006 -0.4 49
2019-10-21 17:00:00 19.5 13 Sudeste 20 Este 0 1006 -1 47
2019-10-21 16:00:00 20 8 Este 19 Nordeste 0 1006.2 -1.2 38
2019-10-21 15:00:00 19.9 9 Este 21 Nordeste 0 1006.4 -1.1 35
2019-10-21 14:00:00 19.1 9 Nordeste 14 Este 0 1007 -1 43
2019-10-21 13:00:00 19.3 6 Este 14 Este 0 1007.4 -0.3 43
2019-10-21 12:00:00 16.7 9 Oeste 14 Oeste 0 1007.5 0.7 56
2019-10-21 11:00:00 13.2 3 Oeste 12 Oeste 0 1008 2 69
2019-10-21 10:00:00 10.5 4 Sudeste 20 Oeste 0 1007.7 2 76
2019-10-21 09:00:00 9.3 8 Oeste 13 Oeste 0 1006.8 0.8 80
2019-10-21 08:00:00 9.1 3 Oeste 14 Oeste 0 1006 0.2 81
2019-10-21 07:00:00 9.7 9 Oeste 17 Oeste 0 1005.7 -0.2 79
2019-10-21 06:00:00 10.6 7 Oeste 15 Noroeste 0 1006 -0.1 75
2019-10-21 05:00:00 10.6 9 Oeste 17 Oeste 0 1005.8 0.2 74
2019-10-21 04:00:00 10.6 7 Oeste 15 Oeste 0 1005.9 0.5 74
2019-10-21 03:00:00 10.8 8 Oeste 13 Oeste 0 1006.1 0.8 72
2019-10-21 02:00:00 10.5 5 Oeste 14 Sudoeste 0 1005.6 1 74
2019-10-21 01:00:00 11.7 6 Oeste 10 Oeste 0 1005.4 1.6 71
2019-10-21 00:00:00 12.6 4 Oeste 11 Sudoeste 0 1005.3 2.2 68
2019-10-20 23:00:00 15 5 Sudoeste 16 Oeste 0 1004.6 2.8 52
2019-10-20 22:00:00 15.2 7 Sudoeste 15 Oeste 0 1003.8 3.2 56
2019-10-20 21:00:00 16.8 6 Sudoeste 15 Oeste 0 1003.1 2.5 50
2019-10-20 20:00:00 17.2 6 Oeste 8 Oeste 0 1001.8 1.2 56
2019-10-20 19:00:00 18.8 4 Noroeste 19 Sudoeste 0 1000.6 1.3 54
2019-10-20 18:00:00 19.8 12 Sudoeste 26 Sudoeste 0 1000.6 1.9 43
2019-10-20 17:00:00 20.3 8 Oeste 26 Oeste 0 1000.6 1.4 45
2019-10-20 16:00:00 19.4 5 Sudeste 14 Oeste 0 999.3 -0.6 58
2019-10-20 15:00:00 17.9 6 Sur 18 Sudoeste 0 998.7 -0.6 63
2019-10-20 14:00:00 17.8 8 Sudoeste 26 Sudoeste 0 999.2 0.1 63
2019-10-20 13:00:00 17.6 14 Sudoeste 26 Sudoeste 0.2 999.9 1.8 64
2019-10-20 12:00:00 17.2 13 Oeste 23 Sudoeste 0.6 999.3 2.1 68
2019-10-20 11:00:00 18.3 13 Oeste 26 Sudoeste 0 999.1 1.6 54
2019-10-20 10:00:00 18.8 13 Sudoeste 24 Sudoeste 0 998.1 2.5 59
2019-10-20 09:00:00 18.2 7 Sudoeste 28 Sudoeste 0 997.2 2.3 61
2019-10-20 08:00:00 17.3 12 Oeste 33 Oeste 0 997.5 3 78
2019-10-20 07:00:00 17.2 2 Sur 8 Sudeste 0 995.6 0.8 77
2019-10-20 06:00:00 16.6 3 Este 14 Oeste 0 994.9 -0.5 79
2019-10-20 05:00:00 18.6 10 Sudoeste 23 Sudoeste 0 994.5 -1.1 74
2019-10-20 04:00:00 16.8 0 Calma 19 Sudoeste 0 994.8 -0.9 75
2019-10-20 03:00:00 18.1 8 Sudoeste 19 Sudoeste 0 995.4 -0.5 79
2019-10-20 02:00:00 17.5 5 Este 12 Oeste 0 995.6 -0.4 73
2019-10-20 01:00:00 18.5 6 Oeste 19 Sudoeste 0 995.7 -0.2 71
2019-10-20 00:00:00 18.5 7 Oeste 13 Sudoeste 0 995.9 -0.2 70
2019-10-19 23:00:00 18 3 Oeste 8 Oeste 0 996 -0.1 72
2019-10-19 22:00:00 18.9 6 Oeste 9 Sudoeste 0 995.9 -0.1 69
2019-10-19 21:00:00 20.7 3 Sudoeste 9 Sudoeste 0 996.1 0 60
2019-10-19 20:00:00 22.3 4 Sudoeste 14 Oeste 0 996.1 -0.1 55
2019-10-19 19:00:00 24.3 5 Oeste 12 Norte 0 996 -0.7 49
2019-10-19 18:00:00 26.3 7 Norte 17 Nordeste 0 996.1 -1.3 44
2019-10-19 17:00:00 27.9 10 Nordeste 23 Sudoeste 0 996.2 -2.2 38
2019-10-19 16:00:00 29.6 15 Sudoeste 31 Oeste 0 996.7 -3 27
2019-10-19 15:00:00 29.3 15 Sudoeste 33 Oeste 0 997.4 -3.3 28
2019-10-19 14:00:00 28.5 13 Sudoeste 24 Sudoeste 0 998.4 -3 30
2019-10-19 13:00:00 26.2 8 Nordeste 14 Este 0 999.7 -1.8 40
2019-10-19 12:00:00 25.2 4 Norte 12 Este 0 1000.7 -0.5 43
2019-10-19 11:00:00 23 8 Sur 16 Sudoeste 0 1001.4 0.4 49
2019-10-19 10:00:00 19.5 6 Oeste 12 Oeste 0 1001.5 0.6 60
2019-10-19 09:00:00 15.4 4 Norte 8 Norte 0 1001.2 0.4 71
2019-10-19 08:00:00 17.1 6 Noroeste 24 Sudoeste 0 1001 0.3 60
2019-10-19 07:00:00 16.8 8 Oeste 19 Sudoeste 0 1000.9 -0.5 60
2019-10-19 06:00:00 15.6 4 Oeste 10 Noroeste 0 1000.8 -1.4 65
2019-10-19 05:00:00 17.7 3 Sur 26 Sudoeste 0 1000.7 -1.7 58
2019-10-19 04:00:00 18 7 Sur 18 Sudoeste 0 1001.4 -1.3 56
2019-10-19 03:00:00 16.6 0 Calma 8 Sudoeste 0 1002.2 -0.8 67
2019-10-19 02:00:00 18.1 3 Sur 8 Sudoeste 0 1002.4 -0.6 60
2019-10-19 01:00:00 18.3 6 Oeste 13 Oeste 0 1002.7 -0.2 60
2019-10-19 00:00:00 18.9 4 Noroeste 13 Oeste 0 1003 0.2 56
2019-10-18 23:00:00 19.7 7 Oeste 16 Oeste 0 1003 0.3 51
2019-10-18 22:00:00 20.9 10 Oeste 19 Oeste 0 1002.9 0.2 50
2019-10-18 21:00:00 21.7 5 Oeste 10 Este 0 1002.8 -0.2 59
2019-10-18 20:00:00 23.5 5 Norte 11 Norte 0 1002.7 -0.6 53
2019-10-18 19:00:00 25.7 6 Sudeste 9 Este 0 1002.7 -1.1 43
2019-10-18 18:00:00 27.9 5 Norte 12 Noroeste 0 1003 -1.5 37
2019-10-18 17:00:00 29 5 Oeste 20 Oeste 0 1003.3 -2 31
2019-10-18 16:00:00 29.6 7 Sudoeste 27 Oeste 0 1003.8 -2.5 29
2019-10-18 15:00:00 28.7 6 Sudeste 18 Este 0 1004.5 -2.3 32
2019-10-18 14:00:00 27.7 7 Nordeste 14 Norte 0 1005.3 -1.7 35
2019-10-18 13:00:00 27.2 7 Sudeste 17 Sur 0 1006.3 -0.5 34
2019-10-18 12:00:00 24.9 3 Sudoeste 15 Oeste 0 1006.8 0.4 37
2019-10-18 11:00:00 21 11 Sudoeste 21 Sudoeste 0 1007 0.7 43
2019-10-18 10:00:00 18.4 6 Sudoeste 14 Sudoeste 0 1006.8 0.7 49
2019-10-18 09:00:00 16.3 4 Oeste 15 Sudoeste 0 1006.4 0.4 60
2019-10-18 08:00:00 15.4 3 Este 12 Sudoeste 0 1006.3 0.2 59
2019-10-18 07:00:00 15.6 5 Oeste 11 Sudoeste 0 1006.1 -0.4 55
2019-10-18 06:00:00 17 2 Oeste 24 Sudoeste 0 1006 -1 53
2019-10-18 05:00:00 16.2 6 Oeste 15 Oeste 0 1006.1 -0.8 63
2019-10-18 04:00:00 17 6 Oeste 28 Sudoeste 0 1006.5 -0.8 60
2019-10-18 03:00:00 17.8 11 Oeste 22 Oeste 0 1007 -0.1 56
2019-10-18 02:00:00 16.9 10 Oeste 18 Sudoeste 0 1006.9 -0.5 60
2019-10-18 01:00:00 16.9 4 Noroeste 10 Sudoeste 0 1007.3 0.6 61
2019-10-18 00:00:00 18.4 3 Sur 12 Oeste 0 1007.1 1.2 54